createdAt,value
2018-01-16T00:01:49.607Z,15.88
2018-01-16T00:04:15.409Z,15.83
2018-01-16T00:06:41.219Z,15.70
2018-01-16T00:09:07.047Z,15.75
2018-01-16T00:11:32.872Z,15.76
2018-01-16T00:13:58.714Z,15.82
2018-01-16T00:16:24.515Z,15.77
2018-01-16T00:18:50.318Z,15.75
2018-01-16T00:21:16.124Z,15.80
2018-01-16T00:23:41.930Z,15.80
2018-01-16T00:26:07.840Z,15.73
2018-01-16T00:28:34.648Z,15.75
2018-01-16T00:31:00.449Z,15.70
2018-01-16T00:33:27.195Z,15.65
2018-01-16T00:35:53.853Z,15.80
2018-01-16T00:38:19.658Z,15.78
2018-01-16T00:40:45.469Z,15.78
2018-01-16T00:43:12.221Z,15.69
2018-01-16T00:45:38.906Z,15.75
2018-01-16T00:48:04.763Z,15.82
2018-01-16T00:50:30.577Z,15.79
2018-01-16T00:52:57.433Z,15.86
2018-01-16T00:55:23.270Z,15.83
2018-01-16T00:57:49.081Z,15.76
2018-01-16T01:00:14.923Z,15.73
2018-01-16T01:02:47.744Z,15.78
2018-01-16T01:05:13.549Z,15.57
2018-01-16T01:07:39.395Z,15.66
2018-01-16T01:10:05.196Z,15.72
2018-01-16T01:12:31.000Z,15.69
2018-01-16T01:14:57.787Z,15.79
2018-01-16T01:17:23.581Z,15.77
2018-01-16T01:19:49.417Z,15.83
2018-01-16T01:22:15.257Z,15.76
2018-01-16T01:24:41.100Z,15.82
2018-01-16T01:27:07.910Z,15.80
2018-01-16T01:29:33.750Z,15.87
2018-01-16T01:32:00.390Z,15.95
2018-01-16T01:34:26.221Z,15.93
2018-01-16T01:36:52.021Z,16.03
2018-01-16T01:39:18.614Z,16.01
2018-01-16T01:41:45.329Z,15.84
2018-01-16T01:44:11.171Z,15.79
2018-01-16T01:46:36.978Z,15.87
2018-01-16T01:49:08.954Z,15.84
2018-01-16T01:51:35.734Z,15.86
2018-01-16T01:54:01.574Z,15.93
2018-01-16T01:56:28.305Z,15.91
2018-01-16T01:58:54.156Z,15.95
2018-01-16T02:01:20.781Z,15.98
2018-01-16T02:03:46.581Z,15.88
2018-01-16T02:06:12.385Z,15.81
2018-01-16T02:08:38.181Z,15.85
2018-01-16T02:11:03.985Z,15.92
2018-01-16T02:13:29.825Z,15.88
2018-01-16T02:15:55.621Z,15.92
2018-01-16T02:18:26.278Z,15.89
2018-01-16T02:20:52.084Z,15.83
2018-01-16T02:23:17.947Z,15.92
2018-01-16T02:25:43.786Z,15.89
2018-01-16T02:28:09.602Z,15.83
2018-01-16T02:30:35.409Z,15.88
2018-01-16T02:33:01.219Z,15.84
2018-01-16T02:35:27.017Z,15.74
2018-01-16T02:37:52.828Z,15.67
2018-01-16T02:40:18.674Z,15.77
2018-01-16T02:42:44.478Z,15.80
2018-01-16T02:45:10.311Z,15.80
2018-01-16T02:47:36.129Z,15.79
2018-01-16T02:50:02.014Z,15.89
2018-01-16T02:52:27.835Z,15.98
2018-01-16T02:54:53.656Z,15.92
2018-01-16T02:57:19.470Z,15.82
2018-01-16T02:59:45.313Z,15.80
2018-01-16T03:02:11.114Z,15.88
2018-01-16T03:04:36.921Z,15.66
2018-01-16T03:07:02.722Z,15.83
2018-01-16T03:09:28.529Z,15.84
2018-01-16T03:11:54.375Z,15.81
2018-01-16T03:14:20.182Z,15.71
2018-01-16T03:16:46.023Z,15.72
2018-01-16T03:19:11.827Z,15.73
2018-01-16T03:21:37.638Z,15.71
2018-01-16T03:24:03.447Z,15.82
2018-01-16T03:26:29.285Z,15.84
2018-01-16T03:28:55.086Z,15.81
2018-01-16T03:31:20.894Z,15.93
2018-01-16T03:33:46.737Z,15.98
2018-01-16T03:36:12.540Z,15.85
2018-01-16T03:38:38.377Z,15.96
2018-01-16T03:41:04.186Z,15.98
2018-01-16T03:43:30.045Z,15.97
2018-01-16T03:45:55.841Z,15.99
2018-01-16T03:48:21.653Z,16.07
2018-01-16T03:50:47.461Z,15.98
2018-01-16T03:53:13.267Z,16.09
2018-01-16T03:55:39.069Z,16.07
2018-01-16T03:58:04.880Z,16.06
2018-01-16T04:00:30.689Z,16.12
2018-01-16T04:02:56.494Z,16.04
2018-01-16T04:05:22.306Z,16.06
2018-01-16T04:07:48.109Z,16.13
2018-01-16T04:10:14.094Z,16.19
2018-01-16T04:12:39.896Z,16.16
2018-01-16T04:15:05.729Z,16.12
2018-01-16T04:17:31.590Z,16.16
2018-01-16T04:19:57.404Z,16.18
2018-01-16T04:22:23.210Z,16.20
2018-01-16T04:24:56.122Z,16.24
2018-01-16T04:27:22.007Z,16.16
2018-01-16T04:29:47.810Z,16.20
2018-01-16T04:32:13.647Z,16.30
2018-01-16T04:34:39.454Z,16.23
2018-01-16T04:37:05.293Z,16.18
2018-01-16T04:39:31.097Z,16.19
2018-01-16T04:41:56.943Z,16.19
2018-01-16T04:44:22.753Z,16.18
2018-01-16T04:46:48.607Z,16.26
2018-01-16T04:49:14.405Z,16.19
2018-01-16T04:51:40.259Z,16.15
2018-01-16T04:54:06.070Z,16.27
2018-01-16T04:56:31.921Z,16.24
2018-01-16T04:58:57.760Z,16.20
2018-01-16T05:01:23.565Z,16.19
2018-01-16T05:03:49.402Z,16.29
2018-01-16T05:06:15.214Z,16.29
2018-01-16T05:08:41.026Z,16.27
2018-01-16T05:11:06.866Z,16.21
2018-01-16T05:13:32.666Z,16.25
2018-01-16T05:15:58.506Z,16.19
2018-01-16T05:18:24.325Z,16.19
2018-01-16T05:20:50.187Z,16.27
2018-01-16T05:23:15.993Z,16.29
2018-01-16T05:25:41.845Z,16.25
2018-01-16T05:28:07.662Z,16.23
2018-01-16T05:30:33.517Z,16.23
2018-01-16T05:32:59.318Z,16.27
2018-01-16T05:35:25.125Z,16.27
2018-01-16T05:37:50.946Z,16.35
2018-01-16T05:40:16.768Z,16.39
2018-01-16T05:42:42.600Z,16.21
2018-01-16T05:45:08.427Z,16.23
2018-01-16T05:47:34.242Z,16.31
2018-01-16T05:50:00.068Z,16.36
2018-01-16T05:52:25.926Z,16.31
2018-01-16T05:54:51.757Z,16.31
2018-01-16T05:57:17.758Z,16.35
2018-01-16T05:59:43.766Z,16.30
2018-01-16T06:02:09.566Z,16.28
2018-01-16T06:04:35.381Z,16.34
2018-01-16T06:07:01.194Z,16.43
2018-01-16T06:09:26.999Z,16.47
2018-01-16T06:11:52.802Z,16.39
2018-01-16T06:14:18.609Z,16.37
2018-01-16T06:16:44.440Z,16.34
2018-01-16T06:19:10.460Z,16.46
2018-01-16T06:21:36.274Z,16.45
2018-01-16T06:24:02.121Z,16.41
2018-01-16T06:26:27.926Z,16.40
2018-01-16T06:28:53.793Z,16.52
2018-01-16T06:31:19.606Z,16.45
2018-01-16T06:33:45.458Z,16.56
2018-01-16T06:36:11.263Z,16.59
2018-01-16T06:38:37.070Z,16.62
2018-01-16T06:41:02.893Z,16.67
2018-01-16T06:43:28.716Z,16.63
2018-01-16T06:45:54.650Z,16.64
2018-01-16T06:48:20.464Z,16.73
2018-01-16T06:50:46.266Z,16.73
2018-01-16T06:53:12.070Z,16.76
2018-01-16T06:55:37.879Z,16.69
2018-01-16T06:58:03.682Z,16.62
2018-01-16T07:00:29.515Z,16.79
2018-01-16T07:02:55.334Z,16.63
2018-01-16T07:05:21.142Z,16.66
2018-01-16T07:07:46.952Z,16.76
2018-01-16T07:10:12.757Z,16.70
2018-01-16T07:12:38.570Z,16.70
2018-01-16T07:15:04.445Z,16.68
2018-01-16T07:17:30.310Z,16.66
2018-01-16T07:19:56.974Z,16.67
2018-01-16T07:22:22.982Z,16.70
2018-01-16T07:24:48.807Z,16.55
2018-01-16T07:27:14.615Z,16.66
2018-01-16T07:29:40.464Z,16.53
2018-01-16T07:32:06.410Z,16.69
2018-01-16T07:34:32.218Z,16.76
2018-01-16T07:36:58.055Z,16.70
2018-01-16T07:39:23.862Z,16.75
2018-01-16T07:41:49.677Z,16.69
2018-01-16T07:44:15.486Z,16.73
2018-01-16T07:46:41.351Z,16.65
2018-01-16T07:49:07.190Z,16.62
2018-01-16T07:51:33.011Z,16.58
2018-01-16T07:53:59.233Z,16.66
2018-01-16T07:56:25.158Z,16.62
2018-01-16T07:58:50.976Z,16.74
2018-01-16T08:01:16.849Z,16.85
2018-01-16T08:03:42.661Z,16.97
2018-01-16T08:06:08.590Z,17.04
2018-01-16T08:08:35.401Z,16.95
2018-01-16T08:11:01.210Z,16.91
2018-01-16T08:13:27.058Z,16.87
2018-01-16T08:15:52.865Z,16.87
2018-01-16T08:18:18.727Z,16.95
2018-01-16T08:20:44.537Z,16.84
2018-01-16T08:23:10.385Z,16.72
2018-01-16T08:25:36.193Z,16.72
2018-01-16T08:28:02.051Z,16.81
2018-01-16T08:30:28.078Z,16.85
2018-01-16T08:32:53.882Z,16.69
2018-01-16T08:35:19.690Z,16.84
2018-01-16T08:37:45.541Z,16.80
2018-01-16T08:40:11.386Z,16.63
2018-01-16T08:42:37.195Z,16.60
2018-01-16T08:45:03.042Z,16.73
2018-01-16T08:47:28.846Z,16.70
2018-01-16T08:49:54.708Z,16.82
2018-01-16T08:52:20.512Z,16.84
2018-01-16T08:54:46.371Z,16.73
2018-01-16T08:57:12.922Z,16.66
2018-01-16T08:59:38.728Z,16.72
2018-01-16T09:02:04.538Z,16.80
2018-01-16T09:04:30.390Z,16.77
2018-01-16T09:06:56.202Z,16.72
2018-01-16T09:09:22.015Z,16.70
2018-01-16T09:11:47.860Z,16.75
2018-01-16T09:14:13.707Z,16.84
2018-01-16T09:16:39.554Z,16.83
2018-01-16T09:19:05.354Z,17.00
2018-01-16T09:21:31.193Z,16.87
2018-01-16T09:23:56.994Z,16.79
2018-01-16T09:26:22.869Z,16.69
2018-01-16T09:28:50.718Z,16.72
2018-01-16T09:31:16.570Z,16.74
2018-01-16T09:33:42.397Z,16.77
2018-01-16T09:36:08.254Z,16.77
2018-01-16T09:38:34.055Z,16.74
2018-01-16T09:40:59.886Z,16.67
2018-01-16T09:43:25.740Z,16.73
2018-01-16T09:45:51.538Z,16.81
2018-01-16T09:48:17.347Z,16.74
2018-01-16T09:50:43.159Z,16.76
2018-01-16T09:53:08.965Z,16.92
2018-01-16T09:55:34.776Z,17.05
2018-01-16T09:58:00.584Z,17.06
2018-01-16T10:00:26.590Z,17.07
2018-01-16T10:02:52.398Z,17.09
2018-01-16T10:05:18.206Z,16.98
2018-01-16T10:07:44.125Z,16.87
2018-01-16T10:10:09.890Z,16.94
2018-01-16T10:12:35.698Z,17.01
2018-01-16T10:15:01.509Z,17.11
2018-01-16T10:17:27.329Z,16.97
2018-01-16T10:19:53.134Z,17.01
2018-01-16T10:22:18.940Z,16.91
2018-01-16T10:24:44.806Z,16.93
2018-01-16T10:27:10.618Z,16.86
2018-01-16T10:29:36.571Z,16.96
2018-01-16T10:32:02.383Z,16.99
2018-01-16T10:34:28.239Z,16.83
2018-01-16T10:36:54.082Z,16.72
2018-01-16T10:39:19.885Z,16.84
2018-01-16T10:41:45.741Z,16.83
2018-01-16T10:44:11.541Z,16.81
2018-01-16T10:46:37.510Z,16.87
2018-01-16T10:49:03.349Z,16.84
2018-01-16T10:51:29.775Z,16.86
2018-01-16T10:53:55.585Z,16.88
2018-01-16T10:56:21.399Z,17.00
2018-01-16T10:58:47.206Z,16.97
2018-01-16T11:01:13.009Z,16.98
2018-01-16T11:03:38.810Z,16.96
2018-01-16T11:06:04.621Z,16.98
2018-01-16T11:08:30.429Z,16.87
2018-01-16T11:10:56.234Z,16.99
2018-01-16T11:13:22.038Z,16.99
2018-01-16T11:15:47.879Z,17.10
2018-01-16T11:18:13.687Z,17.07
2018-01-16T11:20:39.534Z,16.92
2018-01-16T11:23:05.335Z,16.99
2018-01-16T11:25:31.189Z,17.03
2018-01-16T11:27:57.002Z,16.98
2018-01-16T11:30:22.847Z,17.04
2018-01-16T11:32:48.655Z,17.06
2018-01-16T11:35:14.498Z,17.01
2018-01-16T11:37:40.311Z,17.07
2018-01-16T11:40:06.158Z,17.18
2018-01-16T11:42:32.129Z,17.30
2018-01-16T11:44:58.611Z,17.35
2018-01-16T11:47:24.458Z,17.35
2018-01-16T11:49:50.359Z,17.33
2018-01-16T11:52:16.162Z,17.41
2018-01-16T11:54:42.009Z,17.25
2018-01-16T11:57:07.874Z,17.33
2018-01-16T11:59:33.770Z,17.35
2018-01-16T12:01:59.590Z,17.32
2018-01-16T12:04:25.410Z,17.26
2018-01-16T12:06:52.042Z,17.37
2018-01-16T12:09:17.846Z,17.36
2018-01-16T12:11:43.886Z,17.26
2018-01-16T12:14:09.802Z,17.33
2018-01-16T12:16:35.637Z,17.32
2018-01-16T12:19:01.493Z,17.29
2018-01-16T12:21:27.338Z,17.29
2018-01-16T12:23:53.150Z,17.29
2018-01-16T12:26:19.034Z,17.12
2018-01-16T12:28:44.842Z,17.22
2018-01-16T12:31:10.646Z,17.23
2018-01-16T12:33:36.450Z,17.25
2018-01-16T12:36:02.260Z,17.25
2018-01-16T12:38:28.066Z,17.23
2018-01-16T12:40:53.938Z,17.22
2018-01-16T12:43:19.774Z,17.16
2018-01-16T12:45:45.577Z,17.19
2018-01-16T12:48:11.418Z,17.24
2018-01-16T12:50:37.224Z,17.20
2018-01-16T12:53:03.079Z,17.30
2018-01-16T12:55:28.902Z,17.21
2018-01-16T12:57:54.785Z,17.17
2018-01-16T13:00:20.610Z,17.07
2018-01-16T13:02:46.419Z,17.19
2018-01-16T13:05:12.298Z,17.23
2018-01-16T13:07:38.146Z,17.45
2018-01-16T13:10:04.019Z,17.40
2018-01-16T13:12:29.830Z,17.39
2018-01-16T13:14:55.673Z,17.42
2018-01-16T13:17:21.481Z,17.51
2018-01-16T13:19:47.294Z,17.41
2018-01-16T13:22:13.097Z,17.41
2018-01-16T13:24:38.942Z,17.34
2018-01-16T13:27:04.794Z,17.36
2018-01-16T13:29:30.613Z,17.47
2018-01-16T13:31:56.455Z,17.47
2018-01-16T13:34:22.277Z,17.39
2018-01-16T13:36:48.117Z,17.38
2018-01-16T13:39:13.927Z,17.29
2018-01-16T13:41:39.730Z,17.38
2018-01-16T13:44:05.538Z,17.36
2018-01-16T13:46:31.361Z,17.37
2018-01-16T13:48:57.174Z,17.42
2018-01-16T13:51:23.182Z,17.36
2018-01-16T13:53:48.991Z,17.26
2018-01-16T13:56:15.114Z,17.27
2018-01-16T13:58:40.923Z,17.37
2018-01-16T14:01:06.730Z,17.36
2018-01-16T14:03:32.550Z,17.40
2018-01-16T14:05:58.379Z,17.40
2018-01-16T14:08:24.186Z,17.29
2018-01-16T14:10:49.995Z,17.19
2018-01-16T14:13:15.810Z,17.34
2018-01-16T14:15:41.614Z,17.30
2018-01-16T14:18:08.073Z,17.39
2018-01-16T14:20:33.883Z,17.36
2018-01-16T14:22:59.730Z,17.23
2018-01-16T14:25:25.533Z,17.19
2018-01-16T14:27:51.343Z,17.35
2018-01-16T14:30:17.195Z,17.43
2018-01-16T14:32:43.028Z,17.44
2018-01-16T14:35:08.850Z,17.34
2018-01-16T14:37:34.755Z,17.28
2018-01-16T14:40:00.567Z,17.22
2018-01-16T14:42:26.379Z,17.32
2018-01-16T14:44:52.191Z,17.38
2018-01-16T14:47:18.008Z,17.37
2018-01-16T14:54:36.710Z,16.44
2018-01-16T14:57:02.563Z,16.96
2018-01-16T14:59:28.379Z,17.07
2018-01-16T15:01:54.189Z,17.16
2018-01-16T15:04:20.042Z,17.25
2018-01-16T15:06:45.851Z,17.40
2018-01-16T15:09:11.668Z,17.52
2018-01-16T15:11:37.519Z,17.50
2018-01-16T15:14:03.370Z,17.54
2018-01-16T15:16:29.190Z,17.51
2018-01-16T15:18:55.608Z,17.52
2018-01-16T15:21:21.461Z,17.44
2018-01-16T15:23:47.265Z,17.51
2018-01-16T15:26:13.137Z,17.52
2018-01-16T15:28:38.981Z,17.57
2018-01-16T15:31:04.786Z,17.52
2018-01-16T15:33:30.636Z,17.37
2018-01-16T15:35:56.445Z,17.46
2018-01-16T15:38:22.343Z,17.58
2018-01-16T15:40:48.154Z,17.57
2018-01-16T15:43:13.967Z,17.61
2018-01-16T15:45:39.826Z,17.58
2018-01-16T15:48:05.638Z,17.60
2018-01-16T15:50:31.594Z,17.43
2018-01-16T15:52:58.040Z,17.36
2018-01-16T15:55:23.955Z,17.37
2018-01-16T15:57:49.799Z,17.39
2018-01-16T16:00:15.609Z,17.53
2018-01-16T16:02:41.419Z,17.58
2018-01-16T16:05:08.230Z,17.39
2018-01-16T16:07:34.042Z,17.34
2018-01-16T16:09:59.884Z,17.24
2018-01-16T16:12:25.689Z,17.45
2018-01-16T16:14:51.494Z,17.29
2018-01-16T16:17:17.340Z,17.36
2018-01-16T16:19:43.145Z,17.43
2018-01-16T16:22:09.099Z,17.29
2018-01-16T16:24:34.950Z,17.35
2018-01-16T16:27:00.763Z,17.38
2018-01-16T16:29:26.567Z,17.40
2018-01-16T16:31:52.370Z,17.40
2018-01-16T16:34:18.182Z,17.36
2018-01-16T16:36:44.514Z,17.27
2018-01-16T16:39:10.332Z,17.35
2018-01-16T16:41:36.134Z,17.20
2018-01-16T16:44:01.978Z,17.26
2018-01-16T16:46:27.794Z,17.20
2018-01-16T16:48:53.655Z,17.27
2018-01-16T16:51:19.503Z,17.19
2018-01-16T16:53:45.314Z,17.15
2018-01-16T16:56:11.130Z,17.30
2018-01-16T16:58:36.945Z,17.29
2018-01-16T17:01:02.761Z,17.38
2018-01-16T17:03:28.598Z,17.42
2018-01-16T17:05:54.406Z,17.44
2018-01-16T17:08:20.230Z,17.52
2018-01-16T17:10:46.034Z,17.51
2018-01-16T17:13:11.846Z,17.25
2018-01-16T17:15:37.654Z,17.29
2018-01-16T17:18:03.458Z,17.36
2018-01-16T17:20:29.381Z,17.35
2018-01-16T17:22:55.198Z,17.42
2018-01-16T17:25:21.132Z,17.40
2018-01-16T17:27:46.935Z,17.30
2018-01-16T17:30:12.746Z,17.25
2018-01-16T17:32:38.558Z,17.18
2018-01-16T17:35:04.373Z,17.35
2018-01-16T17:37:30.186Z,17.24
2018-01-16T17:39:55.999Z,17.25
2018-01-16T17:42:21.807Z,17.23
2018-01-16T17:44:47.655Z,17.32
2018-01-16T17:47:13.503Z,17.26
2018-01-16T17:49:39.355Z,17.42
2018-01-16T17:52:05.170Z,17.29
2018-01-16T17:54:31.108Z,17.32
2018-01-16T17:56:56.914Z,17.29
2018-01-16T17:59:22.761Z,17.33
2018-01-16T18:01:48.567Z,17.38
2018-01-16T18:04:14.389Z,17.41
2018-01-16T18:06:40.210Z,17.21
2018-01-16T18:09:06.410Z,17.25
2018-01-16T18:11:32.316Z,17.20
2018-01-16T18:13:58.246Z,17.34
2018-01-16T18:16:24.059Z,17.33
2018-01-16T18:18:49.890Z,17.50
2018-01-16T18:21:15.710Z,17.43
2018-01-16T18:23:41.525Z,17.49
2018-01-16T18:26:07.435Z,17.45
2018-01-16T18:28:33.253Z,17.36
2018-01-16T18:30:59.127Z,17.30
2018-01-16T18:33:24.959Z,17.30
2018-01-16T18:35:50.811Z,17.43
2018-01-16T18:38:16.626Z,17.48
2018-01-16T18:40:42.447Z,17.39
2018-01-16T18:43:08.265Z,17.35
2018-01-16T18:45:34.164Z,17.27
2018-01-16T18:48:00.020Z,17.33
2018-01-16T18:50:25.834Z,17.36
2018-01-16T18:52:51.646Z,17.24
2018-01-16T18:55:17.574Z,17.36
2018-01-16T18:57:43.388Z,17.28
2018-01-16T19:00:09.235Z,17.21
2018-01-16T19:02:35.113Z,17.24
2018-01-16T19:05:00.958Z,17.22
2018-01-16T19:07:26.813Z,17.22
2018-01-16T19:09:52.669Z,17.34
2018-01-16T19:12:18.478Z,17.27
2018-01-16T19:14:44.310Z,17.26
2018-01-16T19:17:10.133Z,17.14
2018-01-16T19:19:35.949Z,17.26
2018-01-16T19:22:01.806Z,17.16
2018-01-16T19:24:27.622Z,17.15
2018-01-16T19:26:53.490Z,17.22
2018-01-16T19:29:19.475Z,17.31
2018-01-16T19:31:45.350Z,17.23
2018-01-16T19:34:11.170Z,17.09
2018-01-16T19:36:36.990Z,17.12
2018-01-16T19:39:02.835Z,17.27
2018-01-16T19:41:29.359Z,17.25
2018-01-16T19:43:55.174Z,17.21
2018-01-16T19:46:20.993Z,17.15
2018-01-16T19:48:46.811Z,17.14
2018-01-16T19:51:12.635Z,17.12
2018-01-16T19:53:38.490Z,17.38
2018-01-16T19:56:04.350Z,17.34
2018-01-16T19:58:30.214Z,17.28
2018-01-16T20:00:56.034Z,17.27
2018-01-16T20:03:21.859Z,17.29
2018-01-16T20:05:47.674Z,17.30
2018-01-16T20:08:13.490Z,17.20
2018-01-16T20:10:39.310Z,17.21
2018-01-16T20:13:05.130Z,17.29
2018-01-16T20:15:33.418Z,17.30
2018-01-16T20:17:59.243Z,17.16
2018-01-16T20:20:25.058Z,17.22
2018-01-16T20:25:36.298Z,17.01
2018-01-16T20:28:02.113Z,17.11
2018-01-16T20:30:27.922Z,17.23
2018-01-16T20:32:53.778Z,17.16
2018-01-16T20:35:19.598Z,17.19
2018-01-16T20:37:45.449Z,17.26
2018-01-16T20:40:11.268Z,17.24
2018-01-16T20:42:37.084Z,17.16
2018-01-16T20:45:03.075Z,17.08
2018-01-16T20:47:28.898Z,17.16
2018-01-16T20:49:54.882Z,17.20
2018-01-16T20:52:20.709Z,17.25
2018-01-16T20:54:46.550Z,17.10
2018-01-16T20:57:12.370Z,17.08
2018-01-16T20:59:38.190Z,17.26
2018-01-16T21:02:04.003Z,17.21
2018-01-16T21:04:29.827Z,17.18
2018-01-16T21:06:55.683Z,17.23
2018-01-16T21:09:21.498Z,17.25
2018-01-16T21:11:47.354Z,17.04
2018-01-16T21:14:13.170Z,17.05
2018-01-16T21:16:38.981Z,17.12
2018-01-16T21:19:04.796Z,17.16
2018-01-16T21:21:30.610Z,17.17
2018-01-16T21:23:56.509Z,17.20
2018-01-16T21:26:22.327Z,17.23
2018-01-16T21:28:48.142Z,17.06
2018-01-16T21:31:13.954Z,17.11
2018-01-16T21:33:39.770Z,17.15
2018-01-16T21:36:05.582Z,17.13
2018-01-16T21:38:31.416Z,17.12
2018-01-16T21:40:57.226Z,17.12
2018-01-16T21:43:23.074Z,17.10
2018-01-16T21:45:48.969Z,17.07
2018-01-16T21:48:14.967Z,17.17
2018-01-16T21:50:40.821Z,17.29
2018-01-16T21:53:06.661Z,17.22
2018-01-16T21:55:32.481Z,17.24
2018-01-16T21:57:58.298Z,17.22
2018-01-16T22:00:24.106Z,17.19
2018-01-16T22:02:49.964Z,17.25
2018-01-16T22:05:15.785Z,17.19
2018-01-16T22:07:41.590Z,17.28
2018-01-16T22:10:07.546Z,17.24
2018-01-16T22:12:33.403Z,17.25
2018-01-16T22:14:59.390Z,17.22
2018-01-16T22:17:25.207Z,17.12
2018-01-16T22:19:51.123Z,17.12
2018-01-16T22:22:16.974Z,17.10
2018-01-16T22:24:42.785Z,17.16
2018-01-16T22:27:08.598Z,17.19
2018-01-16T22:29:34.445Z,17.12
2018-01-16T22:32:00.285Z,17.18
2018-01-16T22:34:26.154Z,17.09
2018-01-16T22:36:51.990Z,17.15
2018-01-16T22:39:17.802Z,17.09
2018-01-16T22:41:43.613Z,17.18
2018-01-16T22:44:09.425Z,17.18
2018-01-16T22:46:35.245Z,17.21
2018-01-16T22:49:01.058Z,17.11
2018-01-16T22:51:27.006Z,17.04
2018-01-16T22:53:52.814Z,17.14
2018-01-16T22:56:18.631Z,17.10
2018-01-16T22:58:44.450Z,17.16
2018-01-16T23:01:10.321Z,17.21
2018-01-16T23:03:36.130Z,17.17
2018-01-16T23:06:01.953Z,17.11
2018-01-16T23:08:27.774Z,17.09
2018-01-16T23:10:53.654Z,17.08
2018-01-16T23:13:19.694Z,17.18
2018-01-16T23:15:45.510Z,17.10
2018-01-16T23:18:11.334Z,17.06
2018-01-16T23:20:37.151Z,17.05
2018-01-16T23:23:03.050Z,17.03
2018-01-16T23:25:28.862Z,17.08
2018-01-16T23:27:54.676Z,17.05
2018-01-16T23:30:20.530Z,17.12
2018-01-16T23:32:46.348Z,17.17
2018-01-16T23:35:12.197Z,17.14
2018-01-16T23:37:38.061Z,17.10
2018-01-16T23:40:03.876Z,16.97
2018-01-16T23:42:29.706Z,16.95
2018-01-16T23:44:55.859Z,17.03
2018-01-16T23:47:21.674Z,17.13
2018-01-16T23:49:47.490Z,17.16
2018-01-16T23:52:13.346Z,17.14
2018-01-16T23:54:39.167Z,17.18
2018-01-16T23:57:05.933Z,17.35
2018-01-16T23:59:31.742Z,17.20
